Time;durP1;ratioP1;P1;durP2;ratioP2;P2;SDS_P1;SDS_P2;PMS_P1;PMS_P2;Temp;Humidity;BMP_temperature;BMP_pressure;BME280_temperature;BME280_humidity;BME280_pressure;Samples;Min_cycle;Max_cycle;Signal;HPM_P1;HPM_P2
2021/08/13 00:01:23;;;;;;;7.80;7.10;;;21.60;99.90;;;;;;5074369;28;20769;-75
2021/08/13 00:03:51;;;;;;;6.37;5.77;;;21.50;99.90;;;;;;5074280;28;20464;-76
2021/08/13 00:06:18;;;;;;;7.10;6.50;;;21.50;99.90;;;;;;5073670;28;20454;-77
2021/08/13 00:08:45;;;;;;;7.03;6.10;;;21.40;99.90;;;;;;5074133;28;20532;-75
2021/08/13 00:11:12;;;;;;;7.30;6.60;;;21.40;99.90;;;;;;5074021;28;20457;-75
2021/08/13 00:13:38;;;;;;;8.37;6.97;;;21.40;99.90;;;;;;5077669;28;20454;-76
2021/08/13 00:16:06;;;;;;;7.27;6.57;;;21.40;99.90;;;;;;5077480;28;20565;-75
2021/08/13 00:18:35;;;;;;;7.07;6.37;;;21.30;99.90;;;;;;5077409;28;20465;-76
2021/08/13 00:21:03;;;;;;;12.07;7.13;;;21.30;99.90;;;;;;5077778;28;20461;-76
2021/08/13 00:23:30;;;;;;;7.67;6.70;;;21.30;99.90;;;;;;5077131;28;20473;-75
2021/08/13 00:25:57;;;;;;;7.63;6.87;;;21.30;99.90;;;;;;5077360;28;20914;-75
2021/08/13 00:28:24;;;;;;;7.70;6.23;;;21.20;99.90;;;;;;5077562;28;20454;-75
2021/08/13 00:30:50;;;;;;;8.37;6.73;;;21.20;99.90;;;;;;5077586;28;20790;-75
2021/08/13 00:33:17;;;;;;;7.07;6.37;;;21.20;99.90;;;;;;5077778;28;20545;-75
2021/08/13 00:35:44;;;;;;;8.33;6.97;;;21.20;99.90;;;;;;5077369;28;20458;-75
2021/08/13 00:38:12;;;;;;;6.93;6.33;;;21.10;99.90;;;;;;5078025;28;20488;-75
2021/08/13 00:40:39;;;;;;;8.13;7.27;;;21.10;99.90;;;;;;5079299;28;20490;-76
2021/08/13 00:43:06;;;;;;;7.87;7.17;;;21.20;99.90;;;;;;5086801;28;20472;-75
2021/08/13 00:45:33;;;;;;;7.17;6.43;;;21.10;99.90;;;;;;5078662;28;20981;-75
2021/08/13 00:48:00;;;;;;;8.43;6.67;;;21.20;99.90;;;;;;5078069;28;20454;-76
2021/08/13 00:50:28;;;;;;;7.47;6.80;;;21.10;99.90;;;;;;5077839;28;20544;-76
2021/08/13 00:52:55;;;;;;;8.20;7.40;;;21.10;99.90;;;;;;5077127;28;20462;-75
2021/08/13 00:55:23;;;;;;;6.57;5.93;;;21.10;99.90;;;;;;5077421;28;20450;-76
2021/08/13 00:57:50;;;;;;;6.73;6.03;;;21.10;99.90;;;;;;5077113;28;20576;-75
2021/08/13 01:00:18;;;;;;;6.97;6.30;;;21.10;99.90;;;;;;5076965;28;20532;-75
2021/08/13 01:02:44;;;;;;;7.43;6.47;;;21.10;99.90;;;;;;5077686;28;20464;-75
2021/08/13 01:05:12;;;;;;;9.20;6.73;;;21.00;99.90;;;;;;5077251;28;20545;-75
2021/08/13 01:07:39;;;;;;;7.83;6.80;;;21.10;99.90;;;;;;5077401;28;20458;-75
2021/08/13 01:10:06;;;;;;;6.97;6.37;;;21.00;99.90;;;;;;5077056;28;20894;-76
2021/08/13 01:12:42;;;;;;;8.30;6.97;;;21.00;99.90;;;;;;5078031;28;20505;-75
2021/08/13 01:15:12;;;;;;;7.43;6.73;;;21.00;99.90;;;;;;5079296;28;20457;-76
2021/08/13 01:17:45;;;;;;;7.03;6.33;;;20.90;99.90;;;;;;5079627;28;20478;-75
2021/08/13 01:20:25;;;;;;;6.57;5.97;;;20.90;99.90;;;;;;5080502;28;20895;-75
2021/08/13 01:22:56;;;;;;;8.67;6.60;;;20.90;99.90;;;;;;5079599;28;20485;-76
2021/08/13 01:25:31;;;;;;;7.60;6.80;;;20.90;99.90;;;;;;5080015;28;20450;-76
2021/08/13 01:28:07;;;;;;;8.10;7.30;;;21.00;99.90;;;;;;5080690;28;20536;-75
2021/08/13 01:30:38;;;;;;;7.27;6.57;;;21.00;99.90;;;;;;5081048;28;20453;-75
2021/08/13 01:33:12;;;;;;;7.30;6.60;;;20.90;99.90;;;;;;5079714;28;20454;-75
2021/08/13 01:35:43;;;;;;;7.03;6.30;;;20.90;99.90;;;;;;5079255;28;20441;-75
2021/08/13 01:38:14;;;;;;;6.90;6.30;;;20.90;99.90;;;;;;5079657;28;20470;-75
2021/08/13 01:40:43;;;;;;;8.10;6.97;;;20.90;99.90;;;;;;5078277;28;20483;-75
2021/08/13 01:43:14;;;;;;;7.17;6.53;;;20.90;99.90;;;;;;5081722;28;20454;-75
2021/08/13 01:45:41;;;;;;;10.60;7.37;;;20.90;99.90;;;;;;5086560;28;20516;-75
2021/08/13 01:48:11;;;;;;;6.97;6.37;;;20.90;99.90;;;;;;5083100;28;20760;-75
2021/08/13 01:50:38;;;;;;;7.23;6.60;;;20.90;99.90;;;;;;5079373;28;20472;-77
2021/08/13 01:53:05;;;;;;;7.07;6.10;;;20.90;99.90;;;;;;5077059;28;20458;-75
2021/08/13 01:55:33;;;;;;;6.73;5.80;;;20.90;99.90;;;;;;5077390;28;20863;-75
2021/08/13 01:58:01;;;;;;;7.30;6.70;;;20.90;99.90;;;;;;5077339;28;20574;-75
2021/08/13 02:00:28;;;;;;;10.90;6.27;;;20.90;99.90;;;;;;5076710;28;20926;-75
2021/08/13 02:02:56;;;;;;;7.47;6.70;;;20.90;99.90;;;;;;5076565;28;20465;-77
2021/08/13 02:05:27;;;;;;;8.07;7.27;;;20.90;99.90;;;;;;5076592;28;20472;-75
2021/08/13 02:07:55;;;;;;;8.17;6.70;;;20.90;99.90;;;;;;5077060;28;20882;-75
2021/08/13 02:10:23;;;;;;;7.80;6.13;;;20.90;99.90;;;;;;5077111;28;20562;-77
2021/08/13 02:12:50;;;;;;;7.27;6.57;;;20.90;99.90;;;;;;5077698;28;20468;-75
2021/08/13 02:15:20;;;;;;;7.67;6.93;;;20.80;99.90;;;;;;5076338;28;20541;-75
2021/08/13 02:17:56;;;;;;;7.40;6.80;;;20.90;99.90;;;;;;5076660;28;20872;-75
2021/08/13 02:20:27;;;;;;;7.10;6.40;;;20.80;99.90;;;;;;5076652;28;20446;-75
2021/08/13 02:22:54;;;;;;;8.13;7.20;;;20.80;99.90;;;;;;5076129;28;20453;-75
2021/08/13 02:25:22;;;;;;;8.30;6.30;;;20.80;99.90;;;;;;5076355;28;20486;-75
2021/08/13 02:27:49;;;;;;;10.23;7.33;;;20.80;99.90;;;;;;5076397;28;20465;-75
2021/08/13 02:30:16;;;;;;;8.57;6.80;;;20.80;99.90;;;;;;5076139;28;20458;-75
2021/08/13 02:32:43;;;;;;;6.37;5.87;;;20.80;99.90;;;;;;5076419;28;20557;-75
2021/08/13 02:35:10;;;;;;;7.50;6.77;;;20.70;99.90;;;;;;5075484;28;20855;-75
2021/08/13 02:37:44;;;;;;;7.73;7.03;;;20.70;99.90;;;;;;5075903;28;20490;-74
2021/08/13 02:40:15;;;;;;;7.47;6.77;;;20.70;99.90;;;;;;5075833;28;20955;-75
2021/08/13 02:42:47;;;;;;;7.43;6.33;;;20.70;99.90;;;;;;5076069;28;20489;-75
2021/08/13 02:45:17;;;;;;;7.33;6.50;;;20.70;99.90;;;;;;5075448;28;20447;-75
2021/08/13 02:47:45;;;;;;;7.00;6.40;;;20.70;99.90;;;;;;5076157;28;20497;-75
2021/08/13 02:50:13;;;;;;;7.33;6.63;;;20.70;99.90;;;;;;5076378;28;20454;-75
2021/08/13 02:52:47;;;;;;;8.10;6.90;;;20.70;99.90;;;;;;5075651;28;20459;-74
2021/08/13 02:55:18;;;;;;;7.40;6.70;;;20.70;99.90;;;;;;5075345;28;20533;-75
2021/08/13 02:57:51;;;;;;;9.20;6.40;;;20.60;99.90;;;;;;5076331;28;20462;-75
2021/08/13 03:00:18;;;;;;;7.00;6.40;;;20.60;99.90;;;;;;5076335;28;20470;-75
2021/08/13 03:02:51;;;;;;;10.00;6.90;;;20.60;99.90;;;;;;5075497;28;20469;-75
2021/08/13 03:05:21;;;;;;;7.70;6.90;;;20.60;99.90;;;;;;5075350;28;20530;-75
2021/08/13 03:07:50;;;;;;;8.77;7.20;;;20.60;99.90;;;;;;5076667;28;20547;-75
2021/08/13 03:10:19;;;;;;;7.67;6.97;;;20.50;99.90;;;;;;5075660;28;20923;-75
2021/08/13 03:12:47;;;;;;;7.03;6.53;;;20.50;99.90;;;;;;5075987;28;20450;-75
2021/08/13 03:15:13;;;;;;;7.37;6.67;;;20.50;99.90;;;;;;5076124;28;20454;-75
2021/08/13 03:17:44;;;;;;;9.50;6.90;;;20.50;99.90;;;;;;5075730;28;20488;-75
2021/08/13 03:20:11;;;;;;;7.60;6.90;;;20.40;99.90;;;;;;5076344;28;20442;-75
2021/08/13 03:22:39;;;;;;;8.27;7.10;;;20.40;99.90;;;;;;5077567;28;20501;-75
2021/08/13 03:25:09;;;;;;;7.50;6.80;;;20.40;99.90;;;;;;5076791;28;20541;-75
2021/08/13 03:27:37;;;;;;;7.77;7.17;;;20.40;99.90;;;;;;5081772;28;20541;-75
2021/08/13 03:30:06;;;;;;;7.97;7.27;;;20.40;99.90;;;;;;5078320;28;20465;-75
2021/08/13 03:32:33;;;;;;;8.30;7.60;;;20.40;99.90;;;;;;5078252;28;20468;-75
2021/08/13 03:35:00;;;;;;;10.93;7.57;;;20.40;99.90;;;;;;5081300;28;20525;-74
2021/08/13 03:37:29;;;;;;;8.07;7.37;;;20.40;99.90;;;;;;5081271;28;20486;-75
2021/08/13 03:39:56;;;;;;;7.40;6.80;;;20.40;99.90;;;;;;5080881;28;20490;-75
2021/08/13 03:42:24;;;;;;;7.30;6.60;;;20.50;99.90;;;;;;5078731;28;20489;-75
2021/08/13 03:44:53;;;;;;;9.03;7.20;;;20.40;99.90;;;;;;5077917;28;20885;-76
2021/08/13 03:47:20;;;;;;;8.10;7.30;;;20.40;99.90;;;;;;5086486;28;20458;-75
2021/08/13 03:49:46;;;;;;;8.60;7.70;;;20.40;99.90;;;;;;5082349;28;20526;-76
2021/08/13 03:52:16;;;;;;;8.07;7.27;;;20.40;99.90;;;;;;5083381;28;20454;-74
2021/08/13 03:54:43;;;;;;;7.77;6.90;;;20.40;99.90;;;;;;5085890;28;20464;-75
2021/08/13 03:57:10;;;;;;;7.70;6.93;;;20.40;99.90;;;;;;5081263;28;20545;-76
2021/08/13 03:59:39;;;;;;;8.30;7.50;;;20.30;99.90;;;;;;5081318;28;20548;-75
2021/08/13 04:02:05;;;;;;;8.47;7.67;;;20.30;99.90;;;;;;5079412;28;20454;-75
2021/08/13 04:04:33;;;;;;;8.20;7.50;;;20.30;99.90;;;;;;5079113;28;20798;-75
2021/08/13 04:07:00;;;;;;;8.53;7.63;;;20.30;99.90;;;;;;5078526;28;20461;-75
2021/08/13 04:09:27;;;;;;;9.13;7.80;;;20.30;99.90;;;;;;5078668;28;20430;-75
2021/08/13 04:11:53;;;;;;;8.23;7.50;;;20.30;99.90;;;;;;5078330;28;20952;-75
2021/08/13 04:14:20;;;;;;;8.90;7.50;;;20.30;99.90;;;;;;5078846;28;20454;-76
2021/08/13 04:16:48;;;;;;;9.17;8.37;;;20.40;99.90;;;;;;5078585;28;20468;-75
2021/08/13 04:19:15;;;;;;;7.50;6.90;;;20.40;99.90;;;;;;5078637;28;20810;-75
2021/08/13 04:21:42;;;;;;;11.20;8.07;;;20.40;99.90;;;;;;5078013;28;20454;-75
2021/08/13 04:24:09;;;;;;;8.20;7.50;;;20.50;99.90;;;;;;5078047;28;20942;-75
2021/08/13 04:26:36;;;;;;;10.03;8.63;;;20.50;99.90;;;;;;5078720;28;20465;-75
2021/08/13 04:29:02;;;;;;;9.67;7.50;;;20.50;99.90;;;;;;5079141;28;20465;-75
2021/08/13 04:31:29;;;;;;;7.53;6.83;;;20.50;99.90;;;;;;5078480;28;20462;-75
2021/08/13 04:33:57;;;;;;;11.20;7.53;;;20.60;99.90;;;;;;5078578;28;20481;-75
2021/08/13 04:36:27;;;;;;;9.10;7.03;;;20.60;99.90;;;;;;5078147;28;20458;-75
2021/08/13 04:38:54;;;;;;;8.00;7.30;;;20.60;99.90;;;;;;5078220;28;20577;-75
2021/08/13 04:41:21;;;;;;;8.60;7.67;;;20.70;99.90;;;;;;5077987;28;20488;-75
2021/08/13 04:43:48;;;;;;;12.00;7.50;;;20.70;99.90;;;;;;5077890;28;20557;-74
2021/08/13 04:46:14;;;;;;;9.23;8.27;;;20.70;99.90;;;;;;5078368;28;20519;-76
2021/08/13 04:48:41;;;;;;;8.43;7.53;;;20.80;99.90;;;;;;5078070;28;20450;-75
2021/08/13 04:51:09;;;;;;;8.77;7.80;;;20.80;99.90;;;;;;5078064;28;20462;-76
2021/08/13 04:53:36;;;;;;;9.03;7.63;;;20.80;99.90;;;;;;5077752;28;20470;-75
2021/08/13 04:56:03;;;;;;;8.77;7.97;;;20.80;99.90;;;;;;5077896;28;20933;-74
2021/08/13 04:58:30;;;;;;;9.97;7.60;;;20.70;99.90;;;;;;5076975;28;20496;-75
2021/08/13 05:00:59;;;;;;;8.70;8.00;;;20.60;99.90;;;;;;5077921;28;20463;-76
2021/08/13 05:03:26;;;;;;;12.40;7.90;;;20.70;99.90;;;;;;5078341;28;20450;-75
2021/08/13 05:05:53;;;;;;;9.43;8.43;;;20.70;99.90;;;;;;5078189;28;20458;-75
2021/08/13 05:08:21;;;;;;;9.13;8.23;;;20.70;99.90;;;;;;5078531;28;20460;-75
2021/08/13 05:10:48;;;;;;;9.70;8.20;;;20.80;99.90;;;;;;5077715;28;20831;-76
2021/08/13 05:13:15;;;;;;;8.80;7.90;;;20.80;99.90;;;;;;5077917;28;20464;-75
2021/08/13 05:15:42;;;;;;;8.07;7.30;;;20.90;99.90;;;;;;5077849;28;20458;-76
2021/08/13 05:18:09;;;;;;;12.70;7.70;;;20.90;99.90;;;;;;5077882;28;20828;-76
2021/08/13 05:20:36;;;;;;;9.23;7.20;;;20.90;99.90;;;;;;5077852;28;20574;-76
2021/08/13 05:23:02;;;;;;;8.63;7.73;;;20.90;99.90;;;;;;5077328;28;20537;-75
2021/08/13 05:25:31;;;;;;;9.40;8.10;;;21.00;99.90;;;;;;5076935;28;20466;-75
2021/08/13 05:27:58;;;;;;;9.07;8.17;;;21.00;99.90;;;;;;5077298;28;20450;-75
2021/08/13 05:30:25;;;;;;;9.80;7.60;;;21.00;99.90;;;;;;5077048;28;20500;-75
2021/08/13 05:32:52;;;;;;;8.00;7.20;;;21.10;99.90;;;;;;5077255;28;20450;-75
2021/08/13 05:35:19;;;;;;;9.63;8.10;;;21.10;99.90;;;;;;5077400;28;20565;-75
2021/08/13 05:37:46;;;;;;;9.03;8.13;;;21.10;99.90;;;;;;5077195;28;21048;-75
2021/08/13 05:40:14;;;;;;;9.60;8.20;;;21.10;99.90;;;;;;5077035;28;20577;-75
2021/08/13 05:42:44;;;;;;;8.90;8.00;;;21.00;99.90;;;;;;5077013;28;20454;-75
2021/08/13 05:45:11;;;;;;;9.47;8.40;;;21.00;99.90;;;;;;5076702;28;20463;-76
2021/08/13 05:47:39;;;;;;;8.57;7.77;;;21.00;99.90;;;;;;5077132;28;20468;-75
2021/08/13 05:50:07;;;;;;;8.40;7.60;;;20.90;99.90;;;;;;5077407;28;20918;-76
2021/08/13 05:52:33;;;;;;;9.60;8.60;;;20.90;99.90;;;;;;5076836;28;20454;-76
2021/08/13 05:55:00;;;;;;;13.77;8.10;;;20.90;99.90;;;;;;5076825;28;20458;-75
2021/08/13 05:57:27;;;;;;;10.30;7.60;;;20.80;99.90;;;;;;5076500;28;20468;-75
2021/08/13 05:59:55;;;;;;;9.23;8.43;;;20.80;99.90;;;;;;5076635;28;20473;-76
2021/08/13 06:02:22;;;;;;;8.50;7.80;;;20.70;99.90;;;;;;5076145;28;20458;-76
2021/08/13 06:04:49;;;;;;;9.70;8.70;;;20.70;99.90;;;;;;5076438;28;20454;-76
2021/08/13 06:07:16;;;;;;;8.77;7.93;;;20.70;99.90;;;;;;5076297;28;20454;-76
2021/08/13 06:09:42;;;;;;;10.57;9.13;;;20.70;99.90;;;;;;5076027;28;20545;-76
2021/08/13 06:12:10;;;;;;;9.73;8.93;;;20.80;99.90;;;;;;5076627;28;20540;-75
2021/08/13 06:14:37;;;;;;;10.27;9.17;;;20.80;99.90;;;;;;5076347;28;20545;-76
2021/08/13 06:17:05;;;;;;;9.63;8.40;;;20.90;99.90;;;;;;5076118;28;20458;-75
2021/08/13 06:19:32;;;;;;;9.60;8.60;;;21.00;99.90;;;;;;5076558;28;20790;-75
2021/08/13 06:21:59;;;;;;;17.93;9.30;;;21.00;99.90;;;;;;5076387;28;20454;-75
2021/08/13 06:24:27;;;;;;;10.73;9.33;;;21.10;99.90;;;;;;5076389;28;20549;-76
2021/08/13 06:26:55;;;;;;;10.13;9.13;;;21.20;99.90;;;;;;5075976;28;20542;-75
2021/08/13 06:29:22;;;;;;;9.90;8.90;;;21.30;99.90;;;;;;5076286;28;20464;-75
2021/08/13 06:31:49;;;;;;;14.20;10.20;;;21.40;99.90;;;;;;5076065;28;20511;-75
2021/08/13 06:34:18;;;;;;;11.30;8.37;;;21.50;99.90;;;;;;5075977;28;20454;-76
2021/08/13 06:36:45;;;;;;;11.43;9.53;;;21.50;99.90;;;;;;5076267;28;20457;-76
2021/08/13 06:39:12;;;;;;;9.57;8.27;;;21.60;99.90;;;;;;5075964;28;20492;-76
2021/08/13 06:41:39;;;;;;;10.00;9.10;;;21.60;99.90;;;;;;5076308;28;20465;-76
2021/08/13 06:44:07;;;;;;;13.93;9.53;;;21.70;99.90;;;;;;5076451;28;20554;-76
2021/08/13 06:46:34;;;;;;;11.00;9.17;;;21.80;99.90;;;;;;5076865;28;20538;-76
2021/08/13 06:49:01;;;;;;;12.40;9.00;;;21.90;99.90;;;;;;5076205;28;20460;-75
2021/08/13 06:51:29;;;;;;;15.13;8.50;;;22.00;99.90;;;;;;5076473;28;20468;-76
2021/08/13 06:53:56;;;;;;;14.03;9.57;;;22.10;99.90;;;;;;5075624;28;20454;-75
2021/08/13 06:56:23;;;;;;;11.90;8.90;;;22.10;99.90;;;;;;5075718;28;20545;-76
2021/08/13 06:58:49;;;;;;;10.50;8.80;;;22.20;99.90;;;;;;5076187;28;20773;-75
2021/08/13 07:01:22;;;;;;;11.13;8.70;;;22.20;99.90;;;;;;5075964;28;20795;-75
2021/08/13 07:03:48;;;;;;;10.10;9.10;;;22.30;99.90;;;;;;5076127;28;20751;-74
2021/08/13 07:06:15;;;;;;;9.30;8.40;;;22.40;99.90;;;;;;5075586;28;20462;-74
2021/08/13 07:08:44;;;;;;;18.37;8.80;;;22.50;99.90;;;;;;5076276;28;20464;-74
2021/08/13 07:11:10;;;;;;;10.07;9.00;;;22.50;99.90;;;;;;5075911;28;20795;-75
2021/08/13 07:13:37;;;;;;;12.80;9.00;;;22.60;99.90;;;;;;5076295;28;20468;-75
2021/08/13 07:16:05;;;;;;;12.07;8.90;;;22.70;99.90;;;;;;5076072;28;20458;-75
2021/08/13 07:18:31;;;;;;;10.47;8.60;;;22.80;99.90;;;;;;5075677;28;20569;-75
2021/08/13 07:20:58;;;;;;;8.83;7.93;;;22.90;99.90;;;;;;5078201;28;20458;-75
2021/08/13 07:23:27;;;;;;;10.40;7.97;;;22.90;99.90;;;;;;5080312;28;20879;-75
2021/08/13 07:25:56;;;;;;;10.20;7.80;;;23.00;99.90;;;;;;5080545;28;20563;-76
2021/08/13 07:28:23;;;;;;;8.27;7.47;;;23.10;99.90;;;;;;5079762;28;20454;-76
2021/08/13 07:30:50;;;;;;;7.73;6.93;;;23.20;99.90;;;;;;5079790;28;20612;-75
2021/08/13 07:33:16;;;;;;;8.43;7.77;;;23.30;99.90;;;;;;5080090;28;20458;-75
2021/08/13 07:35:45;;;;;;;17.33;7.77;;;23.50;99.90;;;;;;5080686;28;20462;-75
2021/08/13 07:38:13;;;;;;;9.13;8.23;;;23.60;99.90;;;;;;5080196;28;20461;-76
2021/08/13 07:40:40;;;;;;;8.70;7.90;;;23.70;99.90;;;;;;5079691;28;20486;-75
2021/08/13 07:43:09;;;;;;;10.57;7.00;;;23.70;99.90;;;;;;5079776;28;20545;-76
2021/08/13 07:45:35;;;;;;;7.93;7.23;;;23.80;99.90;;;;;;5079669;28;20454;-76
2021/08/13 07:48:02;;;;;;;8.53;7.03;;;23.90;99.90;;;;;;5080174;28;20484;-75
2021/08/13 07:50:32;;;;;;;8.10;7.00;;;23.90;99.90;;;;;;5079854;28;20450;-77
2021/08/13 07:52:59;;;;;;;10.77;7.70;;;24.00;99.90;;;;;;5082794;28;20533;-77
2021/08/13 07:55:26;;;;;;;9.67;7.00;;;24.10;99.90;;;;;;5083861;28;20453;-75
2021/08/13 07:57:53;;;;;;;8.70;6.67;;;24.20;99.90;;;;;;5084416;28;20477;-75
2021/08/13 08:00:24;;;;;;;7.33;6.70;;;24.30;99.90;;;;;;5083564;28;20589;-75
2021/08/13 08:02:54;;;;;;;8.40;7.50;;;24.40;99.90;;;;;;5083712;28;20922;-75
2021/08/13 08:05:21;;;;;;;7.93;7.13;;;24.40;99.90;;;;;;5083839;28;20462;-75
2021/08/13 08:07:48;;;;;;;9.80;6.90;;;24.50;99.90;;;;;;5084819;28;20476;-75
2021/08/13 08:10:16;;;;;;;7.20;6.10;;;24.70;99.90;;;;;;5085309;28;20825;-75
2021/08/13 08:12:42;;;;;;;7.47;6.77;;;24.70;99.90;;;;;;5084722;28;20461;-76
2021/08/13 08:15:10;;;;;;;7.50;6.27;;;24.80;99.90;;;;;;5082720;28;20464;-74
2021/08/13 08:17:39;;;;;;;8.23;6.43;;;24.90;99.90;;;;;;5083830;28;20914;-76
2021/08/13 08:20:08;;;;;;;6.90;6.20;;;25.00;99.90;;;;;;5084058;28;20506;-72
2021/08/13 08:22:36;;;;;;;9.10;7.00;;;25.10;99.90;;;;;;5083730;28;20490;-74
2021/08/13 08:25:04;;;;;;;7.90;7.10;;;25.30;99.90;;;;;;5083655;28;20469;-74
2021/08/13 08:27:31;;;;;;;13.47;7.27;;;25.40;99.90;;;;;;5082942;28;20473;-74
2021/08/13 08:29:58;;;;;;;6.87;6.30;;;25.40;99.90;;;;;;5084138;28;20464;-73
2021/08/13 08:32:28;;;;;;;7.30;6.50;;;25.50;99.90;;;;;;5082748;28;20454;-73
2021/08/13 08:34:56;;;;;;;8.30;5.90;;;25.60;99.90;;;;;;5085468;28;20465;-74
2021/08/13 08:37:23;;;;;;;11.53;6.60;;;25.60;99.90;;;;;;5085853;28;20465;-74
2021/08/13 08:39:50;;;;;;;6.20;5.60;;;25.60;99.90;;;;;;5084411;28;20490;-74
2021/08/13 08:42:19;;;;;;;6.17;5.57;;;25.70;99.90;;;;;;5084496;28;20443;-73
2021/08/13 08:44:46;;;;;;;7.00;6.37;;;25.70;99.90;;;;;;5079965;28;20450;-74
2021/08/13 08:47:13;;;;;;;10.20;6.07;;;25.70;99.90;;;;;;5079211;28;20460;-74
2021/08/13 08:49:44;;;;;;;7.43;6.60;;;25.80;99.90;;;;;;5078662;28;20450;-73
2021/08/13 08:52:14;;;;;;;6.27;5.77;;;25.80;99.90;;;;;;5078549;28;20900;-74
2021/08/13 08:54:43;;;;;;;7.93;6.00;;;25.90;99.90;;;;;;5079818;28;20447;-73
2021/08/13 08:57:11;;;;;;;7.57;5.93;;;26.00;99.90;;;;;;5079351;28;20462;-74
2021/08/13 08:59:38;;;;;;;6.67;5.90;;;26.10;99.90;;;;;;5080208;28;20481;-72
2021/08/13 09:02:05;;;;;;;8.10;6.00;;;26.00;99.90;;;;;;5079348;28;20454;-72
2021/08/13 09:04:32;;;;;;;6.77;6.13;;;26.10;99.90;;;;;;5079692;28;20468;-73
2021/08/13 09:06:59;;;;;;;11.17;6.70;;;26.20;99.90;;;;;;5078120;28;20462;-74
2021/08/13 09:09:27;;;;;;;9.60;6.43;;;26.30;99.90;;;;;;5077904;28;20922;-73
2021/08/13 09:11:55;;;;;;;7.80;6.40;;;26.40;99.90;;;;;;5078534;28;20454;-73
2021/08/13 09:14:22;;;;;;;7.13;6.50;;;26.40;99.90;;;;;;5079275;28;20566;-73
2021/08/13 09:17:02;;;;;;;7.60;6.50;;;26.50;99.90;;;;;;5079870;28;20458;-73
2021/08/13 09:19:44;;;;;;;8.30;6.17;;;26.60;99.90;;;;;;5079256;28;20829;-71
2021/08/13 09:22:13;;;;;;;9.00;5.50;;;26.60;99.90;;;;;;5079144;28;20522;-73
2021/08/13 09:24:43;;;;;;;8.30;6.27;;;26.70;99.90;;;;;;5079072;28;20919;-73
2021/08/13 09:27:18;;;;;;;8.20;6.10;;;26.80;99.90;;;;;;5078479;28;20465;-74
2021/08/13 09:30:07;;;;;;;6.10;5.50;;;26.90;99.90;;;;;;5078684;28;20512;-74
2021/08/13 09:32:34;;;;;;;6.10;5.33;;;26.90;99.90;;;;;;5079915;28;20538;-73
2021/08/13 09:35:02;;;;;;;6.60;5.40;;;27.10;99.90;;;;;;5079943;28;20465;-72
2021/08/13 09:37:29;;;;;;;6.80;5.43;;;27.10;99.90;;;;;;5079561;28;20457;-73
2021/08/13 09:39:58;;;;;;;6.03;5.30;;;27.30;99.90;;;;;;5079816;28;20489;-72
2021/08/13 09:42:34;;;;;;;5.67;5.23;;;27.30;99.90;;;;;;5080043;28;20458;-73
2021/08/13 09:45:03;;;;;;;7.00;5.40;;;27.40;99.90;;;;;;5079236;28;20581;-73
2021/08/13 09:47:40;;;;;;;5.77;5.23;;;27.50;99.90;;;;;;5080653;28;20456;-73
2021/08/13 09:50:09;;;;;;;6.30;5.70;;;27.60;99.90;;;;;;5080999;28;20423;-72
2021/08/13 09:52:36;;;;;;;9.87;5.53;;;27.70;99.90;;;;;;5080263;28;20473;-73
2021/08/13 09:55:13;;;;;;;5.23;4.73;;;27.80;99.90;;;;;;5081272;28;20513;-73
2021/08/13 09:57:50;;;;;;;10.27;5.33;;;27.80;99.90;;;;;;5081074;28;20810;-76
2021/08/13 10:00:18;;;;;;;7.03;5.37;;;27.80;99.90;;;;;;5080195;28;20953;-73
2021/08/13 10:02:48;;;;;;;5.80;5.30;;;27.80;99.90;;;;;;5079820;28;20454;-73
2021/08/13 10:05:22;;;;;;;6.70;5.03;;;27.80;99.90;;;;;;5081548;28;20524;-73
2021/08/13 10:07:51;;;;;;;5.97;5.47;;;27.90;99.90;;;;;;5081443;28;20524;-73
2021/08/13 10:10:24;;;;;;;7.10;5.80;;;28.00;99.90;;;;;;5080365;28;20472;-73
2021/08/13 10:12:53;;;;;;;7.33;5.60;;;28.10;99.90;;;;;;5081146;28;20503;-73
2021/08/13 10:15:34;;;;;;;5.93;5.43;;;28.10;99.90;;;;;;5080318;28;20533;-73
2021/08/13 10:18:05;;;;;;;6.13;5.53;;;28.20;99.90;;;;;;5079528;28;20434;-72
2021/08/13 10:20:35;;;;;;;7.13;5.20;;;28.20;99.90;;;;;;5079291;28;20992;-73
2021/08/13 10:23:03;;;;;;;8.40;5.13;;;28.20;99.90;;;;;;5078942;28;20879;-73
2021/08/13 10:25:31;;;;;;;6.90;4.90;;;28.20;99.90;;;;;;5077256;28;20462;-77
2021/08/13 10:27:58;;;;;;;5.60;5.10;;;28.40;99.90;;;;;;5075334;28;20458;-77
2021/08/13 10:30:25;;;;;;;5.53;5.00;;;28.50;99.90;;;;;;5076304;28;20461;-77
2021/08/13 10:32:56;;;;;;;7.00;4.60;;;28.50;99.90;;;;;;5075343;28;20508;-77
2021/08/13 10:35:28;;;;;;;5.57;4.60;;;28.60;99.90;;;;;;5078294;28;20446;-74
2021/08/13 10:37:56;;;;;;;12.83;5.20;;;28.70;99.90;;;;;;5077891;28;20454;-73
2021/08/13 10:40:23;;;;;;;5.70;4.40;;;28.70;99.90;;;;;;5077237;28;20655;-73
2021/08/13 10:42:52;;;;;;;8.23;5.47;;;28.80;99.90;;;;;;5075474;28;20893;-73
2021/08/13 10:45:23;;;;;;;4.87;4.43;;;28.70;99.90;;;;;;5075238;28;20458;-73
2021/08/13 10:47:57;;;;;;;5.80;5.30;;;28.70;99.90;;;;;;5076245;28;20442;-73
2021/08/13 10:50:24;;;;;;;6.10;4.43;;;28.80;99.90;;;;;;5078596;28;20442;-73
2021/08/13 10:52:51;;;;;;;8.17;4.43;;;28.90;99.90;;;;;;5077690;28;20549;-74
2021/08/13 10:55:47;;;;;;;4.77;4.37;;;29.00;99.90;;;;;;5076496;28;20468;-73
2021/08/13 10:58:42;;;;;;;5.53;4.93;;;29.00;99.90;;;;;;5044180;28;20454;-73
2021/08/13 11:01:10;;;;;;;5.00;4.53;;;29.10;99.90;;;;;;5076577;28;20919;-73
2021/08/13 11:03:41;;;;;;;7.07;5.37;;;29.10;99.90;;;;;;5078445;28;20522;-73
2021/08/13 11:06:08;;;;;;;8.67;5.33;;;29.20;99.90;;;;;;5078103;28;20538;-73
2021/08/13 11:08:55;;;;;;;4.90;4.50;;;29.30;99.90;;;;;;5077158;28;20516;-73
2021/08/13 11:11:23;;;;;;;7.10;4.30;;;29.50;99.90;;;;;;5076848;28;20460;-73
2021/08/13 11:13:51;;;;;;;6.37;4.57;;;29.50;99.90;;;;;;5076427;28;20484;-76
2021/08/13 11:16:38;;;;;;;6.53;4.73;;;29.50;99.90;;;;;;5077460;28;20462;-75
2021/08/13 11:19:09;;;;;;;4.83;4.40;;;29.60;99.90;;;;;;5077376;28;20534;-77
2021/08/13 11:21:38;;;;;;;5.63;4.63;;;29.60;99.90;;;;;;5077976;28;20491;-76
2021/08/13 11:24:07;;;;;;;4.70;4.30;;;29.60;99.90;;;;;;5077518;28;20458;-75
2021/08/13 11:27:09;;;;;;;5.00;4.57;;;29.70;99.90;;;;;;5076519;28;20460;-76
2021/08/13 11:29:42;;;;;;;5.47;4.20;;;29.90;99.90;;;;;;5077359;28;20450;-73
2021/08/13 11:32:30;;;;;;;5.80;5.03;;;30.10;99.90;;;;;;5078636;28;20762;-74
2021/08/13 11:35:01;;;;;;;5.23;4.73;;;30.50;99.90;;;;;;5077556;28;20442;-76
2021/08/13 11:37:50;;;;;;;5.30;4.90;;;30.80;99.90;;;;;;5077230;28;20514;-75
2021/08/13 11:40:50;;;;;;;5.37;4.80;;;31.10;99.90;;;;;;5077400;28;20482;-74
2021/08/13 11:43:18;;;;;;;15.47;4.83;;;31.60;99.90;;;;;;5077874;28;20438;-76
2021/08/13 11:45:49;;;;;;;5.53;4.40;;;32.30;99.90;;;;;;5078909;28;20458;-76
2021/08/13 11:48:17;;;;;;;5.20;4.70;;;32.90;99.90;;;;;;5078236;28;20450;-73
2021/08/13 11:50:45;;;;;;;5.50;5.00;;;33.40;99.90;;;;;;5078233;28;20454;-75
2021/08/13 11:53:13;;;;;;;6.67;5.23;;;34.00;99.90;;;;;;5078773;28;20629;-75
2021/08/13 11:55:44;;;;;;;5.50;5.00;;;34.20;99.90;;;;;;5078620;28;20507;-74
2021/08/13 11:58:23;;;;;;;5.47;5.07;;;34.30;98.30;;;;;;5079973;28;20849;-74
2021/08/13 12:01:01;;;;;;;6.10;5.50;;;34.30;96.60;;;;;;5080568;28;20462;-75
2021/08/13 12:03:28;;;;;;;5.63;5.13;;;34.40;95.80;;;;;;5078446;28;20886;-75
2021/08/13 12:05:55;;;;;;;6.30;5.70;;;34.50;94.10;;;;;;5078366;28;20488;-75
2021/08/13 12:08:22;;;;;;;10.03;5.83;;;34.80;93.10;;;;;;5081199;28;20454;-75
2021/08/13 12:10:51;;;;;;;5.07;4.57;;;35.00;92.70;;;;;;5080705;28;20465;-74
2021/08/13 12:13:18;;;;;;;7.70;5.00;;;35.20;93.10;;;;;;5079883;28;20461;-74
2021/08/13 12:15:45;;;;;;;8.00;5.40;;;35.40;92.00;;;;;;5079512;28;20447;-74
2021/08/13 12:18:13;;;;;;;6.30;5.40;;;35.30;91.50;;;;;;5079697;28;20933;-73
2021/08/13 12:20:47;;;;;;;6.40;5.80;;;35.10;91.20;;;;;;5080268;28;20477;-74
2021/08/13 12:23:14;;;;;;;6.57;5.93;;;34.70;91.50;;;;;;5080024;28;20454;-74
2021/08/13 12:25:42;;;;;;;6.03;5.53;;;34.40;91.40;;;;;;5079999;28;20458;-74
2021/08/13 12:28:11;;;;;;;7.80;5.93;;;34.10;91.90;;;;;;5080044;28;20533;-74
2021/08/13 12:30:38;;;;;;;6.50;5.90;;;33.80;92.30;;;;;;5080235;28;20454;-74
2021/08/13 12:33:06;;;;;;;6.63;6.03;;;33.70;93.10;;;;;;5079630;28;20565;-74
2021/08/13 12:35:39;;;;;;;8.83;5.70;;;33.90;93.40;;;;;;5079256;28;20561;-74
2021/08/13 12:38:10;;;;;;;6.97;6.27;;;34.10;92.70;;;;;;5079629;28;20458;-74
2021/08/13 12:40:45;;;;;;;10.20;6.17;;;34.10;92.20;;;;;;5079527;28;20577;-74
2021/08/13 12:43:13;;;;;;;7.20;5.50;;;34.10;91.70;;;;;;5079817;28;20797;-75
2021/08/13 12:45:40;;;;;;;5.83;5.00;;;34.10;92.30;;;;;;5078358;28;20472;-74
2021/08/13 12:48:09;;;;;;;5.60;5.20;;;34.20;91.80;;;;;;5078627;28;20462;-74
2021/08/13 12:50:36;;;;;;;6.37;5.20;;;34.40;91.00;;;;;;5078561;28;20516;-75
2021/08/13 12:53:10;;;;;;;5.97;5.37;;;34.60;91.60;;;;;;5079041;28;20533;-74
2021/08/13 12:55:44;;;;;;;6.03;5.50;;;34.90;90.50;;;;;;5078893;28;20431;-74